Time;durP1;ratioP1;P1;durP2;ratioP2;P2;SDS_P1;SDS_P2;PMS_P1;PMS_P2;Temp;Humidity;BMP_temperature;BMP_pressure;BME280_temperature;BME280_humidity;BME280_pressure;Samples;Min_cycle;Max_cycle;Signal;HPM_P1;HPM_P2
2020/12/21 00:01:42;;;;;;;35.15;18.70;;;2.60;84.40;;;0.21;87.70;96822.31;5068091;28;20044;-68
2020/12/21 00:04:07;;;;;;;37.83;19.25;;;2.60;84.20;;;0.22;87.25;96821.38;5039429;28;20185;-68
2020/12/21 00:06:33;;;;;;;39.75;19.10;;;2.60;84.40;;;0.25;87.23;96816.03;5046106;28;20158;-68
2020/12/21 00:08:59;;;;;;;37.17;18.35;;;2.60;84.50;;;0.26;87.72;96813.34;5047237;28;20399;-68
2020/12/21 00:11:38;;;;;;;36.78;17.77;;;2.60;84.40;;;0.28;87.53;96816.63;5059486;28;20485;-68
2020/12/21 00:14:08;;;;;;;36.00;18.63;;;2.60;84.40;;;0.31;87.83;96820.75;5038526;28;20033;-69
2020/12/21 00:16:44;;;;;;;34.60;18.25;;;2.70;84.10;;;0.30;87.57;96799.25;5076532;28;20044;-69
2020/12/21 00:19:10;;;;;;;30.73;16.73;;;2.70;84.00;;;0.32;87.80;96801.72;5030939;28;20066;-69
2020/12/21 00:21:37;;;;;;;29.98;16.70;;;2.70;83.80;;;0.34;87.68;96805.00;5044317;28;20479;-69
2020/12/21 00:24:04;;;;;;;28.52;15.50;;;2.70;83.80;;;0.33;87.65;96798.19;5040990;28;20044;-69
2020/12/21 00:26:29;;;;;;;29.42;16.45;;;2.70;83.50;;;0.34;87.20;96804.19;5060939;28;20053;-69
2020/12/21 00:28:56;;;;;;;26.90;15.13;;;2.60;83.50;;;0.35;86.98;96801.50;5046955;28;20045;-69
2020/12/21 00:31:26;;;;;;;28.38;15.50;;;2.70;83.40;;;0.39;87.46;96804.69;5032911;28;20148;-69
2020/12/21 00:33:52;;;;;;;33.28;15.48;;;2.80;83.40;;;0.41;87.57;96797.63;5032471;28;20577;-69
2020/12/21 00:36:18;;;;;;;27.38;15.45;;;2.80;83.50;;;0.42;86.93;96807.06;5043856;28;20044;-69
2020/12/21 00:38:44;;;;;;;28.33;15.65;;;2.70;83.00;;;0.44;86.97;96803.41;5056802;28;20128;-69
2020/12/21 00:41:15;;;;;;;27.55;15.02;;;2.80;83.10;;;0.44;87.03;96800.81;5054911;28;20157;-69
2020/12/21 00:43:42;;;;;;;27.65;15.25;;;2.90;83.20;;;0.47;87.03;96799.81;5022499;28;20040;-69
2020/12/21 00:46:15;;;;;;;27.27;15.30;;;2.90;83.30;;;0.49;87.43;96801.34;5041835;28;20529;-69
2020/12/21 00:48:42;;;;;;;24.02;13.55;;;2.90;83.40;;;0.51;87.32;96806.41;5025659;28;20050;-67
2020/12/21 00:51:08;;;;;;;25.35;15.13;;;2.90;83.20;;;0.52;87.35;96808.88;5020946;28;20080;-67
2020/12/21 00:53:34;;;;;;;27.23;14.82;;;2.90;83.30;;;0.52;87.47;96808.88;5043898;28;20109;-68
2020/12/21 00:56:06;;;;;;;28.17;16.02;;;3.00;83.20;;;0.53;87.11;96810.53;5022406;28;20037;-68
2020/12/21 00:58:36;;;;;;;26.70;15.85;;;3.00;82.90;;;0.55;87.31;96810.44;5005039;28;20036;-67
2020/12/21 01:01:14;;;;;;;28.08;16.17;;;3.00;82.60;;;0.57;87.31;96817.16;5027447;28;20047;-68
2020/12/21 01:03:39;;;;;;;27.33;15.90;;;3.00;82.70;;;0.60;86.73;96821.28;5032170;28;20035;-68
2020/12/21 01:06:05;;;;;;;26.58;15.48;;;3.10;82.80;;;0.61;86.77;96823.75;5033977;28;20037;-68
2020/12/21 01:08:31;;;;;;;27.83;16.08;;;3.10;82.50;;;0.59;87.09;96817.84;5041974;28;20083;-69
2020/12/21 01:10:57;;;;;;;26.30;15.07;;;3.00;82.60;;;0.63;86.85;96825.41;5052235;28;20035;-68
2020/12/21 01:13:23;;;;;;;23.10;14.20;;;3.10;82.80;;;0.64;87.12;96827.88;5059733;28;20033;-68
2020/12/21 01:15:48;;;;;;;23.20;14.65;;;3.10;82.70;;;0.63;86.91;96820.22;5061330;28;20032;-68
2020/12/21 01:18:14;;;;;;;24.10;14.40;;;3.00;82.80;;;0.60;86.86;96816.09;5078438;28;20037;-68
2020/12/21 01:20:43;;;;;;;23.65;14.07;;;3.00;82.70;;;0.60;86.75;96822.09;5043723;28;20040;-68
2020/12/21 01:23:09;;;;;;;23.08;13.95;;;2.90;82.70;;;0.63;87.38;96826.22;5053682;28;20516;-68
2020/12/21 01:25:35;;;;;;;24.63;14.35;;;3.00;82.90;;;0.63;87.13;96834.00;5037431;28;20043;-68
2020/12/21 01:28:00;;;;;;;24.10;14.93;;;3.00;83.00;;;0.63;86.79;96830.59;5047592;28;20441;-68
2020/12/21 01:30:26;;;;;;;24.88;14.50;;;2.90;83.10;;;0.65;86.84;96831.28;5054003;28;20040;-68
2020/12/21 01:32:51;;;;;;;25.25;14.30;;;3.00;83.10;;;0.61;86.81;96839.28;5046514;28;20033;-68
2020/12/21 01:35:17;;;;;;;26.70;14.70;;;3.00;83.00;;;0.64;87.29;96832.22;5037373;28;20545;-68
2020/12/21 01:37:43;;;;;;;26.17;15.20;;;3.10;83.10;;;0.66;86.86;96838.13;5034840;28;20047;-68
2020/12/21 01:40:10;;;;;;;24.83;14.10;;;3.10;83.10;;;0.68;86.92;96841.44;5033686;28;20109;-68
2020/12/21 01:42:36;;;;;;;23.10;14.55;;;3.10;83.30;;;0.69;87.32;96837.94;5035402;28;20028;-68
2020/12/21 01:45:02;;;;;;;26.55;13.95;;;3.10;83.40;;;0.70;86.93;96831.81;5059937;28;20090;-68
2020/12/21 01:47:27;;;;;;;23.77;13.40;;;3.10;83.20;;;0.73;86.51;96840.19;5057431;28;20492;-68
2020/12/21 01:49:53;;;;;;;25.00;14.30;;;3.10;82.90;;;0.73;86.83;96837.59;5036161;28;20043;-67
2020/12/21 01:52:18;;;;;;;28.20;14.95;;;3.10;82.90;;;0.73;86.99;96836.78;5025809;28;20044;-68
2020/12/21 01:54:45;;;;;;;24.63;14.68;;;3.20;82.90;;;0.73;86.97;96829.00;5041050;28;20517;-68
2020/12/21 01:57:10;;;;;;;27.42;15.13;;;3.10;82.90;;;0.73;87.06;96831.59;5003670;28;20536;-68
2020/12/21 01:59:36;;;;;;;28.60;15.55;;;3.20;83.20;;;0.74;87.55;96835.84;5023445;28;20086;-68
2020/12/21 02:02:02;;;;;;;30.60;15.85;;;3.20;83.30;;;0.79;86.93;96841.50;5014890;28;20535;-68
2020/12/21 02:04:27;;;;;;;28.95;15.90;;;3.20;83.40;;;0.79;87.42;96852.69;5037836;28;20043;-68
2020/12/21 02:06:54;;;;;;;33.10;16.17;;;3.30;83.40;;;0.81;87.21;96855.16;5018634;28;20070;-68
2020/12/21 02:09:20;;;;;;;33.00;16.50;;;3.20;83.50;;;0.80;87.48;96848.34;5041862;28;20055;-67
2020/12/21 02:11:45;;;;;;;33.50;16.52;;;3.20;83.30;;;0.82;86.60;96852.47;5027000;28;20519;-67
2020/12/21 02:14:11;;;;;;;36.17;17.77;;;3.20;83.20;;;0.81;87.27;96849.97;5039248;28;20056;-68
2020/12/21 02:16:37;;;;;;;36.65;17.67;;;3.20;83.30;;;0.77;87.13;96841.63;5055635;28;20044;-68
2020/12/21 02:19:03;;;;;;;34.75;17.23;;;3.20;83.10;;;0.78;86.99;96837.25;5029647;28;20481;-68
2020/12/21 02:21:29;;;;;;;33.55;17.90;;;3.20;83.30;;;0.75;87.15;96835.72;5054395;28;20063;-68
2020/12/21 02:23:55;;;;;;;37.50;17.27;;;3.20;83.30;;;0.78;87.17;96834.66;5041632;28;20515;-68
2020/12/21 02:26:20;;;;;;;35.08;17.35;;;3.20;83.40;;;0.76;87.39;96826.19;5040629;28;20033;-68
2020/12/21 02:28:56;;;;;;;33.88;17.77;;;3.20;83.20;;;0.74;87.83;96823.72;5043517;28;20039;-68
2020/12/21 02:31:22;;;;;;;37.28;17.95;;;3.10;83.40;;;0.75;86.99;96824.53;5015544;28;20041;-68
2020/12/21 02:33:48;;;;;;;39.50;18.45;;;3.10;83.60;;;0.73;87.25;96826.41;5051817;28;20105;-67
2020/12/21 02:36:13;;;;;;;39.38;19.75;;;3.10;83.80;;;0.71;87.75;96823.09;5014115;28;20049;-67
2020/12/21 02:38:39;;;;;;;43.63;18.52;;;3.00;84.10;;;0.71;87.49;96823.94;5034538;28;20115;-67
2020/12/21 02:41:05;;;;;;;37.75;17.77;;;3.10;84.20;;;0.74;87.76;96823.72;5057652;22;20149;-63
2020/12/21 02:43:30;;;;;;;41.40;19.75;;;3.10;84.20;;;0.74;87.55;96817.72;5057270;28;20033;-63
2020/12/21 02:45:56;;;;;;;38.67;18.00;;;3.10;84.00;;;0.73;87.50;96819.47;5086511;28;20052;-63
2020/12/21 02:48:22;;;;;;;38.78;19.13;;;3.10;83.90;;;0.73;87.80;96819.47;5078407;28;20043;-64
2020/12/21 02:50:47;;;;;;;35.95;17.35;;;3.10;84.00;;;0.72;88.09;96829.94;5071172;28;20040;-65
2020/12/21 02:53:16;;;;;;;36.13;17.63;;;3.10;84.00;;;0.72;87.89;96832.53;5057462;28;20032;-63
2020/12/21 02:55:43;;;;;;;36.65;17.45;;;3.10;83.90;;;0.73;87.19;96829.00;5065414;28;20547;-62
2020/12/21 02:58:09;;;;;;;36.13;17.42;;;3.10;83.90;;;0.73;87.29;96829.00;5054594;28;20166;-63
2020/12/21 03:00:35;;;;;;;36.30;17.75;;;3.10;83.90;;;0.75;87.66;96834.91;5073756;28;20118;-64
2020/12/21 03:03:02;;;;;;;40.55;19.50;;;3.10;84.00;;;0.75;87.26;96832.31;5079034;28;20154;-64
2020/12/21 03:05:27;;;;;;;59.15;30.65;;;3.10;83.80;;;0.75;87.52;96834.91;5057971;28;20156;-64
2020/12/21 03:07:53;;;;;;;42.03;21.52;;;3.10;83.90;;;0.78;87.49;96845.03;5049241;28;20028;-64
2020/12/21 03:10:18;;;;;;;34.85;19.23;;;3.20;84.00;;;0.80;87.29;96843.16;5096699;28;20067;-63
2020/12/21 03:12:44;;;;;;;42.97;23.10;;;3.20;83.70;;;0.81;88.29;96844.81;5063545;28;20039;-64
2020/12/21 03:15:09;;;;;;;40.13;21.30;;;3.20;83.70;;;0.80;87.89;96851.75;5086279;28;20443;-64
2020/12/21 03:17:35;;;;;;;52.50;26.67;;;3.20;83.40;;;0.81;87.37;96842.22;5073771;28;20518;-63
2020/12/21 03:20:00;;;;;;;34.47;18.52;;;3.20;83.60;;;0.82;87.46;96838.69;5080105;28;20048;-63
2020/12/21 03:22:26;;;;;;;27.52;14.82;;;3.30;83.60;;;0.82;87.93;96836.91;5040361;28;20033;-63
2020/12/21 03:24:52;;;;;;;28.90;15.65;;;3.30;83.50;;;0.85;87.23;96841.06;5061174;28;20116;-63
2020/12/21 03:27:17;;;;;;;29.98;15.30;;;3.30;83.40;;;0.85;87.21;96828.94;5065002;28;20040;-64
2020/12/21 03:29:43;;;;;;;28.30;15.23;;;3.30;83.30;;;0.85;87.58;96826.34;5059608;28;20206;-63
2020/12/21 03:32:09;;;;;;;34.30;16.85;;;3.30;83.40;;;0.87;87.03;96831.41;5094190;28;20037;-63
2020/12/21 03:34:35;;;;;;;25.60;14.32;;;3.40;83.30;;;0.87;87.33;96824.47;5053939;28;20475;-63
2020/12/21 03:37:00;;;;;;;27.02;14.32;;;3.30;83.30;;;0.87;87.19;96823.63;5042673;28;20052;-63
2020/12/21 03:39:26;;;;;;;27.50;15.77;;;3.30;83.40;;;0.89;87.83;96829.53;5049284;28;20519;-64
2020/12/21 03:41:52;;;;;;;27.67;14.23;;;3.30;83.40;;;0.91;87.54;96825.09;5078921;28;20035;-64
2020/12/21 03:44:17;;;;;;;26.38;14.85;;;3.30;83.40;;;0.92;87.26;96834.50;5078409;28;20044;-64
2020/12/21 03:46:43;;;;;;;26.30;14.95;;;3.30;83.20;;;0.93;87.67;96828.38;5090254;28;20508;-63
2020/12/21 03:49:08;;;;;;;29.48;14.98;;;3.30;83.30;;;0.96;87.32;96841.13;5064411;28;20500;-63
2020/12/21 03:51:34;;;;;;;28.45;15.63;;;3.40;83.50;;;0.95;87.44;96831.69;5078413;28;20510;-63
2020/12/21 03:53:59;;;;;;;79.72;46.58;;;3.30;83.30;;;0.95;87.10;96826.50;5059106;28;20495;-63
2020/12/21 03:56:25;;;;;;;62.15;36.53;;;3.40;83.60;;;0.94;87.18;96819.69;5069495;28;20045;-63
2020/12/21 03:58:50;;;;;;;33.97;18.13;;;3.40;83.50;;;0.95;86.80;96815.31;5062856;28;20405;-63
2020/12/21 04:01:16;;;;;;;28.30;14.95;;;3.40;83.30;;;0.93;87.02;96807.66;5064944;28;20066;-64
2020/12/21 04:03:42;;;;;;;36.85;21.42;;;3.40;83.40;;;0.95;87.26;96818.75;5056802;28;20032;-63
2020/12/21 04:06:07;;;;;;;35.50;18.98;;;3.40;83.70;;;0.95;87.82;96816.16;5051698;28;20056;-64
2020/12/21 04:08:33;;;;;;;29.52;16.77;;;3.40;83.70;;;0.95;87.27;96805.78;5040555;28;20047;-63
2020/12/21 04:10:59;;;;;;;30.15;14.88;;;3.40;83.60;;;0.96;87.28;96807.44;5052580;28;20040;-64
2020/12/21 04:13:26;;;;;;;32.03;17.08;;;3.40;83.70;;;0.98;87.85;96809.91;5062107;28;20512;-63
2020/12/21 04:15:53;;;;;;;23.90;14.10;;;3.40;83.70;;;0.98;87.61;96815.94;5078507;28;20126;-63
2020/12/21 04:18:18;;;;;;;23.77;13.35;;;3.40;83.50;;;0.98;87.23;96810.75;5048213;28;20476;-63
2020/12/21 04:20:44;;;;;;;24.02;13.25;;;3.40;83.30;;;0.96;86.93;96806.63;5041377;28;20131;-64
2020/12/21 04:23:09;;;;;;;20.20;12.65;;;3.40;83.30;;;0.96;87.76;96810.03;5057361;28;20043;-62
2020/12/21 04:25:35;;;;;;;20.85;12.27;;;3.30;83.40;;;0.95;87.03;96800.59;5082354;28;20031;-63
2020/12/21 04:28:01;;;;;;;21.92;11.98;;;3.40;83.30;;;0.92;87.16;96798.25;5096482;28;20044;-63
2020/12/21 04:30:26;;;;;;;19.67;12.05;;;3.30;83.00;;;0.86;87.08;96790.91;5079765;28;20048;-63
2020/12/21 04:32:52;;;;;;;22.98;13.18;;;3.20;83.20;;;0.84;87.03;96787.59;5050143;28;20034;-64
2020/12/21 04:35:17;;;;;;;22.25;12.52;;;3.20;83.40;;;0.82;87.35;96784.31;5068641;28;20056;-63
2020/12/21 04:37:43;;;;;;;23.17;11.63;;;3.20;83.30;;;0.77;87.27;96781.22;5083405;28;20036;-63
2020/12/21 04:40:08;;;;;;;20.05;11.82;;;3.10;83.70;;;0.76;87.42;96795.13;5047546;28;20064;-63
2020/12/21 04:42:46;;;;;;;20.38;12.02;;;3.10;83.70;;;0.74;87.56;96799.59;5068123;28;20028;-63
2020/12/21 04:45:12;;;;;;;21.30;11.68;;;3.10;83.90;;;0.72;87.69;96797.09;5042332;28;20053;-64
2020/12/21 04:47:37;;;;;;;20.35;12.00;;;3.00;84.00;;;0.70;86.83;96790.38;5048314;28;20071;-64
2020/12/21 04:50:03;;;;;;;20.92;12.38;;;3.00;84.00;;;0.66;87.50;96794.94;5036746;28;20098;-63
2020/12/21 04:52:30;;;;;;;19.60;11.07;;;3.00;84.10;;;0.66;87.69;96791.53;5059887;28;20035;-64
2020/12/21 04:54:55;;;;;;;22.50;12.80;;;3.00;84.30;;;0.66;87.45;96800.13;5055325;28;20036;-63
2020/12/21 04:57:21;;;;;;;20.10;10.68;;;3.00;84.30;;;0.68;87.71;96797.41;5072331;28;20114;-63
2020/12/21 04:59:46;;;;;;;19.70;11.00;;;3.10;84.30;;;0.68;87.62;96810.34;5060106;28;20044;-63
2020/12/21 05:02:12;;;;;;;22.23;11.70;;;3.10;84.00;;;0.71;87.75;96812.75;5037791;28;20036;-64
2020/12/21 05:04:37;;;;;;;19.23;11.73;;;3.10;84.10;;;0.74;87.63;96822.88;5079084;28;20035;-63
2020/12/21 05:07:03;;;;;;;24.35;11.90;;;3.10;84.40;;;0.77;87.32;96823.47;5060501;28;20092;-63
2020/12/21 05:09:28;;;;;;;20.95;11.70;;;3.20;84.20;;;0.79;87.22;96818.19;5073973;28;20025;-63
2020/12/21 05:12:03;;;;;;;16.92;10.93;;;3.20;84.10;;;0.79;87.25;96821.59;5084092;28;20502;-63
2020/12/21 05:14:36;;;;;;;22.83;11.32;;;3.10;84.00;;;0.80;88.06;96809.50;5078351;28;20060;-63
2020/12/21 05:17:15;;;;;;;20.33;11.38;;;3.20;84.00;;;0.81;88.31;96808.53;5068454;28;20120;-63
2020/12/21 05:19:40;;;;;;;18.48;11.25;;;3.20;83.90;;;0.80;87.49;96805.13;5054191;28;20061;-63
2020/12/21 05:22:14;;;;;;;16.50;10.68;;;3.10;83.90;;;0.80;87.98;96799.94;5042180;28;20519;-62
2020/12/21 05:24:40;;;;;;;19.60;11.27;;;3.20;83.90;;;0.83;87.44;96796.31;5056224;28;21435;-63
2020/12/21 05:27:17;;;;;;;19.35;10.88;;;3.20;83.90;;;0.83;87.96;96798.91;5049877;28;20684;-68
2020/12/21 05:29:51;;;;;;;18.90;10.90;;;3.10;84.00;;;0.82;87.88;96789.47;5076214;28;20038;-64
2020/12/21 05:32:21;;;;;;;17.58;10.38;;;3.10;84.20;;;0.83;87.80;96791.13;5039105;28;20089;-64
2020/12/21 05:34:47;;;;;;;16.83;10.57;;;3.10;84.20;;;0.82;87.09;96787.72;5050835;28;20059;-65
2020/12/21 05:37:20;;;;;;;15.98;10.35;;;3.10;84.30;;;0.84;87.44;96782.41;5073190;28;20056;-63
2020/12/21 05:39:53;;;;;;;17.15;10.73;;;3.10;84.20;;;0.82;87.99;96779.13;5055181;28;20020;-63
2020/12/21 05:42:19;;;;;;;17.67;10.07;;;3.10;84.20;;;0.82;87.75;96779.94;5037931;28;20186;-63
2020/12/21 05:44:54;;;;;;;17.63;10.10;;;3.10;84.30;;;0.83;87.74;96784.19;5039480;28;20463;-63
2020/12/21 05:47:21;;;;;;;16.13;9.95;;;3.10;84.30;;;0.81;87.50;96775.72;5067049;28;20093;-63
2020/12/21 05:49:57;;;;;;;19.73;11.35;;;3.10;84.40;;;0.83;88.18;96778.19;5052382;28;20061;-63
2020/12/21 05:52:29;;;;;;;18.48;10.43;;;3.10;84.30;;;0.81;88.05;96765.34;5071587;28;20072;-63
2020/12/21 05:54:55;;;;;;;25.27;10.90;;;3.10;84.50;;;0.80;87.49;96775.81;5065486;28;20048;-64
2020/12/21 05:57:21;;;;;;;21.02;11.55;;;3.00;84.60;;;0.79;87.83;96769.00;5056317;28;20089;-64
2020/12/21 05:59:49;;;;;;;21.75;10.95;;;3.00;84.80;;;0.78;87.61;96764.75;5051106;28;20058;-64
2020/12/21 06:02:18;;;;;;;22.60;11.27;;;3.00;85.00;;;0.74;87.93;96755.56;5035007;28;20033;-63
2020/12/21 06:04:49;;;;;;;19.02;11.10;;;3.00;85.10;;;0.75;87.82;96758.03;5042503;28;20040;-63
2020/12/21 06:07:22;;;;;;;19.33;10.93;;;3.10;84.90;;;0.76;88.22;96756.28;5025849;28;20047;-63
2020/12/21 06:09:50;;;;;;;17.30;10.48;;;3.10;84.70;;;0.75;88.35;96757.22;5036279;28;20025;-63
2020/12/21 06:12:21;;;;;;;19.23;10.80;;;3.10;84.80;;;0.75;87.45;96747.69;5069872;28;20119;-63
2020/12/21 06:14:48;;;;;;;21.08;11.65;;;3.10;84.90;;;0.75;87.76;96741.69;5046269;28;20114;-67
2020/12/21 06:17:14;;;;;;;18.88;10.88;;;3.10;84.80;;;0.74;88.15;96752.97;5036666;28;20153;-63
2020/12/21 06:19:39;;;;;;;18.40;10.68;;;3.10;84.80;;;0.74;88.01;96755.56;5069656;28;20056;-64
2020/12/21 06:22:05;;;;;;;20.00;11.38;;;3.10;84.80;;;0.73;87.27;96744.38;5069193;28;20519;-63
2020/12/21 06:24:37;;;;;;;22.17;12.38;;;3.10;84.70;;;0.74;88.45;96742.63;5084005;28;20094;-64
2020/12/21 06:27:12;;;;;;;28.15;13.30;;;3.10;84.70;;;0.74;88.10;96740.03;5032913;28;20037;-64
2020/12/21 06:29:38;;;;;;;25.05;12.90;;;3.10;84.60;;;0.72;87.91;96734.13;5017963;28;20127;-63
2020/12/21 06:32:05;;;;;;;26.58;12.88;;;3.10;84.80;;;0.72;87.60;96744.50;5052054;28;20139;-64
2020/12/21 06:34:34;;;;;;;19.10;11.30;;;3.00;84.70;;;0.71;87.64;96740.25;5034744;28;20078;-62
2020/12/21 06:37:09;;;;;;;19.45;11.70;;;3.00;84.70;;;0.67;88.25;96737.03;5086608;28;20055;-63
2020/12/21 06:39:35;;;;;;;17.92;11.15;;;2.90;84.80;;;0.67;87.86;96738.81;5053859;28;20035;-63
2020/12/21 06:42:13;;;;;;;18.20;10.77;;;3.00;84.70;;;0.64;88.44;96739.84;5020788;28;20364;-65
2020/12/21 06:44:40;;;;;;;19.80;10.63;;;2.90;84.80;;;0.63;88.01;96743.38;5052748;28;20047;-65
2020/12/21 06:47:12;;;;;;;19.48;10.77;;;3.00;84.70;;;0.60;87.92;96741.84;5036949;28;20496;-65
2020/12/21 06:49:38;;;;;;;18.10;11.02;;;2.90;84.70;;;0.59;87.70;96752.31;5021477;28;20029;-64
2020/12/21 06:52:04;;;;;;;19.58;11.23;;;2.90;84.80;;;0.56;88.04;96757.72;5008235;28;20048;-68
2020/12/21 06:54:29;;;;;;;21.42;11.23;;;2.90;84.80;;;0.55;87.69;96756.91;5056851;28;20036;-67
2020/12/21 06:56:55;;;;;;;18.52;11.00;;;2.90;84.80;;;0.56;87.45;96757.72;5035793;28;20045;-68
2020/12/21 06:59:22;;;;;;;42.20;22.15;;;2.90;84.70;;;0.56;87.72;96758.53;5053986;28;20104;-66
2020/12/21 07:01:51;;;;;;;23.92;13.45;;;2.90;84.90;;;0.54;87.87;96765.59;5056672;28;20558;-65
2020/12/21 07:04:30;;;;;;;21.15;12.07;;;2.90;84.50;;;0.52;88.01;96767.47;5057180;28;20040;-67
2020/12/21 07:06:56;;;;;;;20.45;11.77;;;2.90;84.40;;;0.52;87.62;96777.84;5052980;28;20040;-67
2020/12/21 07:09:27;;;;;;;22.02;10.90;;;2.90;84.50;;;0.50;88.24;96774.53;5037569;28;20028;-65
2020/12/21 07:11:55;;;;;;;20.33;11.32;;;2.90;84.60;;;0.51;88.16;96780.53;5036983;28;20044;-64
2020/12/21 07:14:21;;;;;;;23.90;12.55;;;2.90;84.60;;;0.49;87.93;96774.66;5039681;28;20225;-65
2020/12/21 07:16:47;;;;;;;21.10;12.57;;;2.90;84.50;;;0.50;88.06;96779.72;5041857;28;20067;-65
2020/12/21 07:19:12;;;;;;;20.92;11.80;;;3.00;84.50;;;0.53;87.74;96771.72;5054840;28;20068;-68
2020/12/21 07:21:39;;;;;;;31.48;16.73;;;3.00;84.50;;;0.55;88.48;96771.59;5085471;28;20037;-67
2020/12/21 07:24:07;;;;;;;59.38;33.67;;;3.10;84.40;;;0.55;88.00;96777.59;5055586;28;20130;-67
2020/12/21 07:26:33;;;;;;;26.02;14.23;;;3.10;84.60;;;0.57;88.18;96774.91;5048086;28;20028;-65
2020/12/21 07:28:58;;;;;;;38.17;21.08;;;3.10;84.30;;;0.57;87.92;96770.56;5062707;28;20043;-68
2020/12/21 07:31:24;;;;;;;41.17;22.95;;;3.10;84.40;;;0.61;88.65;96764.22;5065418;28;20044;-65
2020/12/21 07:33:55;;;;;;;25.05;13.65;;;3.10;85.60;;;0.65;88.45;96761.41;5036626;28;20032;-69
2020/12/21 07:36:30;;;;;;;;;;;3.20;85.50;;;0.69;89.72;96771.44;5053905;28;20598;-68
2020/12/21 07:39:10;;;;;;;18.90;11.65;;;3.20;85.10;;;0.73;89.55;96775.44;5048498;28;19917;-64
2020/12/21 07:41:43;;;;;;;20.58;11.38;;;3.30;85.20;;;0.77;88.71;96783.81;5037279;28;20028;-63
2020/12/21 07:44:16;;;;;;;22.60;13.27;;;3.30;85.00;;;0.80;88.64;96791.38;5044980;28;20036;-63
2020/12/21 07:47:19;;;;;;;25.85;13.60;;;3.40;84.60;;;0.84;88.89;96791.03;5055869;28;20058;-63
2020/12/21 07:49:44;;;;;;;22.00;12.80;;;3.40;84.30;;;0.89;88.76;96806.22;5038536;28;20087;-63
2020/12/21 07:52:10;;;;;;;24.10;12.90;;;3.40;84.40;;;0.93;88.63;96802.50;5035606;28;20044;-63
2020/12/21 07:54:43;;;;;;;21.17;12.50;;;3.50;84.30;;;0.95;88.39;96800.59;5019181;28;20028;-63
2020/12/21 07:57:13;;;;;;;23.90;12.38;;;3.40;83.90;;;0.97;87.94;96803.91;5035536;28;20408;-63
2020/12/21 07:59:38;;;;;;;23.35;13.77;;;3.50;83.90;;;0.99;88.09;96796.84;5036924;28;20048;-63
2020/12/21 08:02:05;;;;;;;22.88;13.27;;;3.60;83.40;;;1.08;88.95;96796.16;5022291;28;20079;-63
2020/12/21 08:04:31;;;;;;;22.38;12.55;;;3.70;83.30;;;1.14;87.94;96790.53;5072217;28;20452;-63
2020/12/21 08:07:10;;;;;;;21.35;12.10;;;3.90;83.10;;;1.31;89.83;96801.41;5031206;28;20036;-63
2020/12/21 08:09:37;;;;;;;23.60;12.68;;;4.20;83.50;;;1.43;88.22;96800.50;5052562;28;20052;-66
2020/12/21 08:12:08;;;;;;;25.52;14.10;;;4.40;82.40;;;1.57;88.67;96804.63;5057002;28;20040;-66
2020/12/21 08:14:33;;;;;;;23.88;13.27;;;4.60;81.60;;;1.67;88.25;96798.63;5022160;28;20373;-67
2020/12/21 08:17:15;;;;;;;23.75;13.48;;;4.60;81.20;;;1.79;88.00;96784.72;5037886;28;20043;-65
2020/12/21 08:19:58;;;;;;;;;;;4.70;80.60;;;1.89;87.72;96781.44;5061675;28;20710;-64
2020/12/21 08:22:26;;;;;;;26.92;12.82;;;4.80;80.50;;;1.96;87.51;96772.22;5058723;28;19913;-64
2020/12/21 08:25:14;;;;;;;20.88;12.35;;;4.80;80.30;;;2.05;86.96;96776.72;5052234;28;20041;-64
2020/12/21 08:27:48;;;;;;;24.02;12.63;;;4.90;80.30;;;2.12;86.91;96764.91;5088091;28;20096;-69
2020/12/21 08:30:22;;;;;;;23.45;12.95;;;4.90;80.20;;;2.19;87.22;96760.03;5060694;28;20036;-68
2020/12/21 08:32:48;;;;;;;22.65;12.88;;;4.90;80.10;;;2.27;87.39;96755.91;5037463;28;20083;-69
2020/12/21 08:35:14;;;;;;;27.80;12.98;;;5.00;80.50;;;2.31;87.02;96759.09;5036230;28;20041;-68
2020/12/21 08:37:39;;;;;;;28.52;14.50;;;5.10;79.70;;;2.41;87.28;96763.41;5013722;28;20035;-68
2020/12/21 08:40:24;;;;;;;27.65;14.57;;;5.10;80.40;;;2.48;87.32;96758.53;5002419;28;20037;-63
2020/12/21 08:42:50;;;;;;;27.80;13.82;;;5.10;80.10;;;2.54;87.27;96771.06;5045304;28;20047;-64
2020/12/21 08:45:20;;;;;;;24.77;13.88;;;5.20;79.90;;;2.59;86.39;96765.50;5053386;28;20695;-65
2020/12/21 08:47:45;;;;;;;32.60;17.63;;;5.20;79.90;;;2.62;87.04;96766.06;5045774;28;20051;-64
2020/12/21 08:50:11;;;;;;;33.65;16.40;;;5.20;79.80;;;2.65;86.82;96771.00;5054212;28;20036;-65
2020/12/21 08:52:36;;;;;;;31.98;15.38;;;5.20;79.90;;;2.67;87.08;96768.28;5047596;28;20044;-65
2020/12/21 08:55:03;;;;;;;31.83;16.05;;;5.20;80.10;;;2.69;87.01;96756.00;5066200;28;20059;-72
2020/12/21 08:57:29;;;;;;;33.90;15.48;;;5.30;80.30;;;2.72;86.93;96756.59;5035353;28;20119;-69
2020/12/21 08:59:54;;;;;;;33.13;16.35;;;5.20;80.40;;;2.76;87.32;96757.16;5062568;28;20147;-68
2020/12/21 09:02:20;;;;;;;31.73;15.32;;;5.30;81.00;;;2.79;86.85;96758.69;5053526;28;20036;-73
2020/12/21 09:04:45;;;;;;;39.25;16.48;;;5.30;81.10;;;2.78;86.87;96760.47;5033778;28;20036;-67
2020/12/21 09:07:11;;;;;;;34.15;16.58;;;5.30;81.40;;;2.80;86.82;96771.56;5020562;28;20041;-68
2020/12/21 09:09:36;;;;;;;39.03;16.88;;;5.30;81.50;;;2.81;87.17;96765.41;5057471;28;20132;-70
2020/12/21 09:12:02;;;;;;;40.83;16.35;;;5.40;81.60;;;2.83;86.96;96758.31;5073384;28;20067;-66
2020/12/21 09:14:28;;;;;;;40.30;17.38;;;5.40;81.50;;;2.85;87.15;96766.81;5039713;28;20044;-68
2020/12/21 09:16:53;;;;;;;36.05;16.75;;;5.50;81.40;;;2.87;87.22;96759.72;5033729;28;20078;-69
2020/12/21 09:19:19;;;;;;;39.88;18.55;;;5.50;81.30;;;2.92;86.94;96752.34;5067383;28;20623;-68
2020/12/21 09:21:45;;;;;;;40.15;17.23;;;5.60;81.30;;;2.94;86.81;96760.88;5052574;28;20135;-67
2020/12/21 09:24:11;;;;;;;34.00;18.17;;;5.60;80.90;;;2.98;87.02;96758.84;5018150;28;20044;-66
2020/12/21 09:26:36;;;;;;;38.50;19.80;;;5.60;80.80;;;3.04;86.78;96759.16;5049330;28;20036;-69
2020/12/21 09:29:02;;;;;;;40.53;18.70;;;5.70;80.90;;;3.10;87.17;96754.41;5074834;28;20047;-67
2020/12/21 09:31:27;;;;;;;37.08;18.45;;;5.80;80.90;;;3.19;87.17;96761.47;5079707;28;20046;-68
2020/12/21 09:33:54;;;;;;;42.20;19.75;;;5.80;80.90;;;3.26;86.77;96765.19;5070139;28;20526;-67
2020/12/21 09:36:20;;;;;;;43.22;20.52;;;5.90;80.60;;;3.32;86.66;96756.88;5054047;28;20142;-73
2020/12/21 09:38:46;;;;;;;34.10;17.73;;;6.10;80.20;;;3.40;86.63;96746.66;5053304;28;20043;-66
2020/12/21 09:41:18;;;;;;;34.58;16.15;;;6.10;79.60;;;3.48;86.87;96739.03;5009922;28;20041;-66
2020/12/21 09:43:48;;;;;;;31.77;16.98;;;6.20;79.20;;;3.55;86.10;96747.13;5038228;28;20059;-64
2020/12/21 09:46:21;;;;;;;32.60;17.15;;;6.30;78.90;;;3.61;85.64;96739.63;5053740;28;20051;-63
2020/12/21 09:48:47;;;;;;;26.83;16.52;;;6.30;78.30;;;3.68;86.58;96739.94;5060415;28;20056;-68
2020/12/21 09:51:13;;;;;;;24.00;14.90;;;6.50;78.30;;;3.75;86.45;96719.44;5032173;28;20044;-67
2020/12/21 09:53:39;;;;;;;30.98;15.90;;;6.60;77.80;;;3.83;86.11;96707.41;5043570;28;20079;-65
2020/12/21 09:56:07;;;;;;;24.95;15.45;;;6.60;77.40;;;3.92;86.26;96716.22;5049606;28;20499;-63
2020/12/21 09:58:33;;;;;;;26.30;15.32;;;6.70;77.20;;;3.96;86.12;96701.97;5052705;28;20051;-63
2020/12/21 10:00:58;;;;;;;27.52;15.18;;;6.80;76.80;;;4.06;85.93;96710.59;5087418;28;20036;-63
2020/12/21 10:03:24;;;;;;;23.65;14.48;;;6.90;76.90;;;4.13;85.28;96706.53;5036588;28;20032;-62
2020/12/21 10:05:49;;;;;;;23.02;14.85;;;6.90;76.40;;;4.16;85.64;96698.44;5072127;28;20040;-64
2020/12/21 10:08:15;;;;;;;26.27;15.38;;;6.90;76.40;;;4.21;85.70;96688.44;5087495;28;20043;-63
2020/12/21 10:10:40;;;;;;;25.17;16.15;;;6.90;77.00;;;4.27;85.35;96689.69;5036770;28;20032;-63
2020/12/21 10:13:06;;;;;;;24.50;14.70;;;7.10;76.20;;;4.22;85.15;96692.69;5068514;28;20040;-64
2020/12/21 10:15:31;;;;;;;25.27;14.48;;;6.90;76.70;;;4.27;85.05;96684.47;5071035;28;20131;-64
2020/12/21 10:17:57;;;;;;;24.17;15.10;;;7.00;76.80;;;4.35;84.70;96689.03;5067887;28;20117;-62
2020/12/21 10:20:23;;;;;;;33.25;18.40;;;7.10;76.10;;;4.42;84.80;96693.53;5067215;28;20185;-63
2020/12/21 10:22:48;;;;;;;26.70;14.82;;;7.30;75.70;;;4.50;85.39;96685.84;5056704;28;20035;-64